Terminal Aerodrome Forecast
Issued by NWS Blacksburg, VA

Home | Current Version | Previous Version | Text Only | Print | Product List | Glossary On
Versions: 1 2 3 4 5 6 7 8 9 10 11 12 13 14 15 16 17 18 19 20 21 22 23 24 25 26 27 28 29 30 31 32 33 34 35
000
FTUS41 KRNK 300520
TAFBLF
TAF
KBLF 300520Z 3006/3106 29016G26KT 4SM -SHRAPL BR OVC007
     FM300700 29017G27KT 4SM -SHSN BR OVC007
      TEMPO 3007/3011 1SM -SHSN BR OVC004
     FM301400 29020G30KT P6SM -SHSN OVC010
     FM301800 30018G32KT P6SM OVC015
     FM302200 30015G25KT P6SM BKN020
     FM310300 29010G20KT P6SM SCT020=

USA.gov is the U.S. government's official web portal to all federal, state and local government web resources and services.